Time;durP1;ratioP1;P1;durP2;ratioP2;P2;SDS_P1;SDS_P2;PMS_P1;PMS_P2;Temp;Humidity;BMP_temperature;BMP_pressure;BME280_temperature;BME280_humidity;BME280_pressure;Samples;Min_cycle;Max_cycle;Signal;HPM_P1;HPM_P2
2022/08/25 00:00:17;;;;;;;3.45;1.88;;;;;;;26.12;48.16;101543.06;5026830;28;20053;-62
2022/08/25 00:02:45;;;;;;;3.15;2.10;;;;;;;26.10;48.18;101537.03;5026239;28;20081;-62
2022/08/25 00:05:26;;;;;;;2.55;2.00;;;;;;;26.06;48.15;101527.78;5039449;28;20049;-62
2022/08/25 00:07:57;;;;;;;2.85;2.15;;;;;;;26.06;48.17;101531.34;5046535;28;20049;-62
2022/08/25 00:10:26;;;;;;;3.85;2.35;;;;;;;26.04;48.25;101533.59;5046005;28;20055;-62
2022/08/25 00:12:54;;;;;;;3.17;1.73;;;;;;;26.03;48.21;101534.72;5030280;28;20080;-62
2022/08/25 00:15:22;;;;;;;3.38;1.90;;;;;;;26.01;48.40;101534.22;5030468;28;20083;-61
2022/08/25 00:17:50;;;;;;;4.50;1.92;;;;;;;26.00;48.31;101529.03;5045925;28;20522;-61
2022/08/25 00:20:18;;;;;;;4.97;2.25;;;;;;;25.96;48.21;101531.59;5044235;28;20085;-61
2022/08/25 00:22:47;;;;;;;2.58;1.90;;;;;;;25.97;48.43;101540.69;5046267;28;20073;-62
2022/08/25 00:25:17;;;;;;;2.63;1.77;;;;;;;25.95;48.34;101538.22;5026503;28;20073;-61
2022/08/25 00:27:46;;;;;;;3.47;2.20;;;;;;;25.93;48.43;101533.03;5026326;28;20089;-62
2022/08/25 00:30:15;;;;;;;4.18;2.47;;;;;;;25.91;48.39;101539.97;5026321;28;20046;-62
2022/08/25 00:32:43;;;;;;;5.75;2.13;;;;;;;25.90;48.47;101535.59;5026269;28;20050;-62
2022/08/25 00:35:22;;;;;;;4.25;2.40;;;;;;;25.87;48.48;101537.00;5026196;28;20054;-61
2022/08/25 00:37:50;;;;;;;4.35;1.95;;;;;;;25.87;48.48;101537.00;5026499;28;20144;-61
2022/08/25 00:40:19;;;;;;;3.70;2.60;;;;;;;25.86;48.32;101537.31;5026086;28;20073;-61
2022/08/25 00:42:47;;;;;;;2.47;2.15;;;;;;;25.84;48.43;101537.63;5026090;28;20115;-61
2022/08/25 00:45:14;;;;;;;4.30;2.10;;;;;;;25.83;48.48;101541.50;5026175;28;20054;-62
2022/08/25 00:47:42;;;;;;;4.22;2.17;;;;;;;25.83;48.41;101540.69;5025980;28;20084;-62
2022/08/25 00:50:11;;;;;;;3.30;2.42;;;;;;;25.82;48.31;101539.06;5026257;28;20077;-61
2022/08/25 00:52:43;;;;;;;2.33;1.90;;;;;;;25.80;48.34;101542.13;5026137;28;20046;-62
2022/08/25 00:55:15;;;;;;;3.65;2.30;;;;;;;25.80;48.45;101547.63;5026095;28;20073;-62
2022/08/25 00:57:47;;;;;;;2.78;2.10;;;;;;;25.79;48.41;101539.69;5025597;28;20539;-62
2022/08/25 01:00:19;;;;;;;3.75;2.15;;;;;;;25.78;48.38;101538.03;5025755;28;20054;-62
2022/08/25 01:02:47;;;;;;;3.38;2.20;;;;;;;25.77;48.44;101534.47;5025921;28;20105;-62
2022/08/25 01:05:16;;;;;;;3.78;2.03;;;;;;;25.75;48.38;101535.91;5026013;28;20057;-62
2022/08/25 01:07:44;;;;;;;4.85;2.78;;;;;;;25.74;48.46;101534.28;5026018;28;20057;-62
2022/08/25 01:10:13;;;;;;;2.45;1.80;;;;;;;25.72;48.49;101534.59;5025571;28;20054;-62
2022/08/25 01:12:41;;;;;;;2.30;1.83;;;;;;;25.72;48.51;101536.53;5025512;28;20092;-62
2022/08/25 01:15:13;;;;;;;3.90;2.10;;;;;;;25.69;48.63;101528.88;5030046;28;20065;-61
2022/08/25 01:17:47;;;;;;;4.75;2.28;;;;;;;25.68;48.68;101535.50;5049096;28;20054;-61
2022/08/25 01:20:18;;;;;;;4.28;2.17;;;;;;;25.66;48.56;101530.31;5049570;28;20053;-62
2022/08/25 01:22:48;;;;;;;3.53;2.40;;;;;;;25.62;48.78;101529.25;5049600;28;20057;-62
2022/08/25 01:25:32;;;;;;;4.15;1.95;;;;;;;25.62;48.67;101529.25;5043794;28;20046;-62
2022/08/25 01:28:00;;;;;;;3.90;2.33;;;;;;;25.61;48.75;101531.19;5029314;28;20495;-62
2022/08/25 01:30:27;;;;;;;3.40;2.30;;;;;;;25.59;48.76;101529.88;5029872;28;20408;-61
2022/08/25 01:32:55;;;;;;;2.92;2.20;;;;;;;25.57;48.68;101521.91;5029523;28;20084;-61
2022/08/25 01:35:23;;;;;;;6.22;2.10;;;;;;;25.55;48.61;101523.34;5029392;28;20077;-62
2022/08/25 01:37:52;;;;;;;3.40;2.22;;;;;;;25.53;48.88;101529.16;5029913;28;20084;-62
2022/08/25 01:40:21;;;;;;;5.05;1.90;;;;;;;25.51;48.75;101527.81;5029267;28;20084;-62
2022/08/25 01:42:58;;;;;;;2.45;2.00;;;;;;;25.49;48.90;101533.63;5029066;28;20049;-62
2022/08/25 01:45:27;;;;;;;3.85;2.33;;;;;;;25.47;48.82;101535.06;5038706;28;20083;-62
2022/08/25 01:47:55;;;;;;;5.15;2.47;;;;;;;25.46;48.80;101530.69;5048899;28;20145;-62
2022/08/25 01:50:23;;;;;;;3.90;2.83;;;;;;;25.43;48.81;101526.59;5048980;28;20045;-62
2022/08/25 01:52:58;;;;;;;3.25;2.40;;;;;;;25.42;48.99;101532.41;5047946;28;20057;-61
2022/08/25 01:55:26;;;;;;;4.32;2.58;;;;;;;25.39;48.95;101538.53;5047615;28;20081;-61
2022/08/25 01:57:54;;;;;;;4.07;2.30;;;;;;;25.36;48.76;101530.88;5048477;28;20049;-61
2022/08/25 02:00:23;;;;;;;3.08;1.85;;;;;;;25.34;49.11;101539.44;5048140;28;20045;-61
2022/08/25 02:02:51;;;;;;;4.00;2.50;;;;;;;25.31;48.99;101526.28;5028919;28;20057;-61
2022/08/25 02:05:22;;;;;;;5.40;2.45;;;;;;;25.30;48.83;101532.91;5028927;28;20081;-61
2022/08/25 02:07:50;;;;;;;4.28;2.40;;;;;;;25.29;49.14;101539.53;5029168;28;20050;-61
2022/08/25 02:10:21;;;;;;;4.93;2.55;;;;;;;25.26;49.05;101534.63;5028537;28;20061;-62
2022/08/25 02:12:49;;;;;;;2.97;2.20;;;;;;;25.23;48.89;101527.00;5028704;28;20050;-62
2022/08/25 02:15:21;;;;;;;3.58;2.53;;;;;;;25.22;48.88;101528.94;5028907;28;20076;-62
2022/08/25 02:17:48;;;;;;;5.13;2.80;;;;;;;25.19;49.04;101529.53;5028434;28;20491;-62
2022/08/25 02:20:17;;;;;;;4.75;2.35;;;;;;;25.19;48.97;101523.22;5047692;28;20084;-62
2022/08/25 02:22:45;;;;;;;4.65;2.55;;;;;;;25.16;49.01;101524.63;5048365;28;20056;-62
2022/08/25 02:25:24;;;;;;;5.93;2.17;;;;;;;25.13;49.10;101524.44;5047751;28;20441;-62
2022/08/25 02:27:52;;;;;;;4.32;2.58;;;;;;;25.12;48.95;101531.88;5042326;28;20077;-62
2022/08/25 02:30:20;;;;;;;3.28;2.10;;;;;;;25.11;48.78;101527.47;5028428;28;20093;-62
2022/08/25 02:32:48;;;;;;;4.35;2.60;;;;;;;25.08;48.92;101525.34;5028159;28;20114;-62
2022/08/25 02:35:16;;;;;;;5.70;2.35;;;;;;;25.04;48.79;101520.75;5028411;28;20058;-62
2022/08/25 02:37:44;;;;;;;5.10;2.70;;;;;;;25.07;48.96;101528.38;5028588;28;20057;-62
2022/08/25 02:40:12;;;;;;;4.38;3.00;;;;;;;25.06;48.74;101524.00;5028201;28;20050;-62
2022/08/25 02:42:42;;;;;;;3.53;2.40;;;;;;;25.06;48.83;101529.50;5027986;28;20077;-62
2022/08/25 02:45:10;;;;;;;5.25;3.28;;;;;;;25.04;48.76;101520.75;5028526;28;20177;-62
2022/08/25 02:47:38;;;;;;;5.78;2.70;;;;;;;25.03;48.87;101525.44;5027653;28;20080;-62
2022/08/25 02:50:07;;;;;;;4.38;2.70;;;;;;;25.02;48.55;101520.22;5028094;28;20108;-62
2022/08/25 02:52:35;;;;;;;8.05;2.85;;;;;;;25.00;48.56;101519.72;5028272;28;20050;-62
2022/08/25 02:55:05;;;;;;;5.20;2.80;;;;;;;25.00;48.70;101511.47;5027915;28;20073;-62
2022/08/25 02:57:33;;;;;;;3.28;2.33;;;;;;;24.97;48.73;101507.38;5027651;28;20562;-62
2022/08/25 03:00:04;;;;;;;4.00;2.60;;;;;;;24.95;48.70;101510.41;5027983;28;20050;-62
2022/08/25 03:02:32;;;;;;;5.35;2.67;;;;;;;24.93;48.67;101504.38;5027832;28;20050;-63
2022/08/25 03:05:00;;;;;;;3.70;2.55;;;;;;;24.92;48.51;101516.50;5027919;28;20092;-62
2022/08/25 03:07:28;;;;;;;4.88;2.90;;;;;;;24.89;48.58;101519.03;5027758;28;20499;-62
2022/08/25 03:10:06;;;;;;;4.03;2.97;;;;;;;24.88;48.39;101514.66;5027789;28;20058;-62
2022/08/25 03:12:34;;;;;;;4.97;2.70;;;;;;;24.86;48.57;101497.66;5027656;28;20069;-62
2022/08/25 03:15:04;;;;;;;4.15;2.95;;;;;;;24.84;48.48;101499.88;5027551;28;20049;-62
2022/08/25 03:17:39;;;;;;;4.80;3.05;;;;;;;24.83;48.58;101498.25;5027228;28;20099;-62
2022/08/25 03:20:12;;;;;;;3.95;2.60;;;;;;;24.81;48.53;101497.75;5027396;28;20050;-62
2022/08/25 03:22:41;;;;;;;6.32;3.22;;;;;;;24.79;48.32;101499.97;5027645;28;20496;-62
2022/08/25 03:27:54;;;;;;;7.20;2.75;;;;;;;24.75;48.44;101497.00;5027010;28;20056;-62
2022/08/25 03:30:24;;;;;;;3.83;2.88;;;;;;;24.72;48.23;101486.63;5027358;28;20061;-61
2022/08/25 03:32:52;;;;;;;6.07;2.85;;;;;;;24.71;48.43;101489.66;5027490;28;20046;-62
2022/08/25 03:35:20;;;;;;;3.22;2.58;;;;;;;24.70;48.27;101488.03;5027367;28;20050;-62
2022/08/25 03:37:49;;;;;;;5.25;2.67;;;;;;;24.66;48.44;101483.13;5034445;28;20072;-62
2022/08/25 03:40:17;;;;;;;4.88;2.75;;;;;;;24.64;48.55;101496.38;5044793;28;20088;-61
2022/08/25 03:42:45;;;;;;;4.65;3.10;;;;;;;24.59;48.29;101485.47;5026880;28;20129;-62
2022/08/25 03:45:16;;;;;;;3.53;2.63;;;;;;;24.53;48.36;101472.91;5027216;28;20046;-62
2022/08/25 03:47:47;;;;;;;4.75;2.88;;;;;;;24.56;48.17;101483.31;5026648;28;20053;-62
2022/08/25 03:50:17;;;;;;;7.43;2.83;;;;;;;24.55;48.58;101480.84;5027011;28;20057;-62
2022/08/25 03:52:52;;;;;;;5.13;2.67;;;;;;;24.53;48.25;101483.91;5026981;28;20088;-62
2022/08/25 03:55:22;;;;;;;4.30;2.80;;;;;;;24.50;48.41;101479.00;5026886;28;20049;-62
2022/08/25 03:57:50;;;;;;;5.40;2.50;;;;;;;24.50;48.02;101470.78;5026370;28;20050;-61
2022/08/25 04:00:18;;;;;;;6.20;2.90;;;;;;;24.47;48.04;101471.38;5028204;28;20084;-61
2022/08/25 04:02:47;;;;;;;4.82;2.65;;;;;;;24.47;48.51;101471.38;5028095;28;20061;-61
2022/08/25 04:05:15;;;;;;;4.47;3.03;;;;;;;24.43;48.08;101464.84;5026612;28;20060;-62
2022/08/25 04:07:43;;;;;;;4.93;3.08;;;;;;;24.42;48.51;101465.13;5026674;28;20046;-62
2022/08/25 04:10:11;;;;;;;3.83;2.78;;;;;;;24.40;48.09;101459.13;5026467;28;20085;-62
2022/08/25 04:12:40;;;;;;;8.90;3.33;;;;;;;24.39;48.27;101466.56;5046194;28;20042;-62
2022/08/25 04:15:09;;;;;;;7.82;3.13;;;;;;;24.38;48.06;101464.94;5046067;28;20049;-62
2022/08/25 04:17:39;;;;;;;5.13;3.17;;;;;;;24.34;48.05;101467.44;5040215;28;20054;-61
2022/08/25 04:20:11;;;;;;;4.47;2.72;;;;;;;24.34;48.35;101472.13;5026401;28;20424;-61
2022/08/25 04:22:41;;;;;;;8.02;3.40;;;;;;;24.33;48.03;101476.00;5026388;28;20081;-61
2022/08/25 04:25:12;;;;;;;6.18;3.13;;;;;;;24.30;47.96;101474.66;5026595;28;20114;-62
2022/08/25 04:27:40;;;;;;;4.72;2.90;;;;;;;24.28;48.07;101476.88;5026051;28;20073;-62
2022/08/25 04:30:08;;;;;;;10.52;3.40;;;;;;;24.28;48.08;101467.84;5026169;28;20074;-62
2022/08/25 04:32:36;;;;;;;6.05;3.00;;;;;;;24.23;47.98;101463.22;5026511;28;20061;-62
2022/08/25 04:35:05;;;;;;;7.15;2.95;;;;;;;24.24;47.92;101456.63;5026189;28;20077;-62
2022/08/25 04:37:34;;;;;;;5.38;3.00;;;;;;;24.25;48.27;101452.75;5025304;28;20056;-62
2022/08/25 04:40:03;;;;;;;6.50;3.47;;;;;;;24.23;47.77;101446.75;5025174;28;20482;-63
2022/08/25 04:42:31;;;;;;;7.15;3.40;;;;;;;24.20;48.34;101446.53;5045657;28;20075;-62
2022/08/25 04:45:00;;;;;;;4.72;3.22;;;;;;;24.19;48.10;101442.97;5034431;28;20121;-62
2022/08/25 04:47:28;;;;;;;4.28;3.03;;;;;;;24.19;47.79;101444.91;5024877;28;20111;-62
2022/08/25 04:49:56;;;;;;;4.68;2.65;;;;;;;24.16;47.75;101440.00;5026034;28;20050;-62
2022/08/25 04:52:24;;;;;;;4.28;3.08;;;;;;;24.15;48.13;101441.94;5026233;28;20053;-62
2022/08/25 04:54:53;;;;;;;6.03;3.30;;;;;;;24.14;48.02;101447.72;5026052;28;20049;-62
2022/08/25 04:57:21;;;;;;;5.35;3.20;;;;;;;24.13;47.77;101443.34;5026052;28;20077;-62
2022/08/25 04:59:48;;;;;;;7.28;3.20;;;;;;;24.11;47.71;101443.66;5025637;28;20089;-62
2022/08/25 05:02:16;;;;;;;5.75;2.78;;;;;;;24.09;47.77;101443.13;5025897;28;20077;-62
2022/08/25 05:04:44;;;;;;;5.30;2.65;;;;;;;24.07;48.01;101445.34;5045581;28;20061;-62
2022/08/25 05:07:11;;;;;;;7.63;2.95;;;;;;;24.08;47.83;101448.91;5045559;28;20053;-62
2022/08/25 05:09:39;;;;;;;5.45;3.17;;;;;;;24.06;47.98;101451.97;5044456;28;20085;-62
2022/08/25 05:12:09;;;;;;;5.35;2.97;;;;;;;24.05;47.68;101457.75;5045686;28;20052;-62
2022/08/25 05:14:39;;;;;;;5.85;3.33;;;;;;;24.02;47.52;101454.50;5044810;28;20064;-62
2022/08/25 05:17:07;;;;;;;5.78;3.35;;;;;;;24.01;47.96;101452.84;5045340;28;20056;-62
2022/08/25 05:19:36;;;;;;;5.50;3.33;;;;;;;24.01;47.65;101463.84;5030586;28;20077;-62
2022/08/25 05:22:03;;;;;;;4.70;3.15;;;;;;;23.99;47.60;101465.25;5025661;28;20046;-62
2022/08/25 05:24:31;;;;;;;5.10;3.30;;;;;;;23.96;47.89;101469.41;5025602;28;20495;-62
2022/08/25 05:26:59;;;;;;;5.72;2.88;;;;;;;23.95;47.58;101469.69;5025623;28;20096;-61
2022/08/25 05:29:28;;;;;;;4.68;2.90;;;;;;;23.92;47.85;101473.84;5040112;28;20095;-62
2022/08/25 05:31:55;;;;;;;7.75;3.15;;;;;;;23.90;47.70;101465.09;5044490;28;20060;-62
2022/08/25 05:34:24;;;;;;;7.22;3.28;;;;;;;23.90;47.94;101472.50;5045295;28;20096;-62
2022/08/25 05:36:52;;;;;;;7.38;3.42;;;;;;;23.89;47.97;101473.63;5043522;28;20045;-62
2022/08/25 05:39:19;;;;;;;4.95;3.38;;;;;;;23.88;47.63;101472.00;5025597;28;20077;-62
2022/08/25 05:41:47;;;;;;;5.43;3.28;;;;;;;23.86;47.87;101474.22;5025421;28;20050;-62
2022/08/25 05:44:16;;;;;;;7.50;3.25;;;;;;;23.82;48.01;101468.50;5025412;28;20443;-62
2022/08/25 05:46:49;;;;;;;7.18;3.47;;;;;;;23.84;47.55;101471.78;5025178;28;20054;-62
2022/08/25 05:49:17;;;;;;;6.78;3.88;;;;;;;23.83;47.85;101472.88;5025821;28;20137;-62
2022/08/25 05:51:45;;;;;;;6.80;3.67;;;;;;;23.82;47.75;101482.22;5025476;28;20074;-62
2022/08/25 05:54:13;;;;;;;6.65;3.17;;;;;;;23.82;47.56;101486.91;5025518;28;20682;-62
2022/08/25 05:56:40;;;;;;;5.75;3.17;;;;;;;23.79;47.88;101482.81;5025258;28;20053;-62
2022/08/25 05:59:09;;;;;;;6.90;3.10;;;;;;;23.78;47.89;101486.69;5025384;28;20053;-62
2022/08/25 06:04:23;;;;;;;4.88;2.85;;;;;;;23.75;47.51;101483.69;5029037;28;20057;-62
2022/08/25 06:06:52;;;;;;;4.70;3.22;;;;;;;23.76;47.99;101491.66;5041159;28;20088;-62
2022/08/25 06:09:21;;;;;;;6.57;3.10;;;;;;;23.74;48.07;101482.88;5048465;28;20068;-62
2022/08/25 06:11:48;;;;;;;6.35;3.13;;;;;;;23.74;48.00;101491.13;5048582;28;20064;-61
2022/08/25 06:14:22;;;;;;;7.50;3.60;;;;;;;23.73;47.61;101483.19;5046957;28;20049;-62
2022/08/25 06:16:50;;;;;;;4.82;2.80;;;;;;;23.73;47.54;101491.41;5048063;28;20072;-62
2022/08/25 06:19:18;;;;;;;5.38;3.05;;;;;;;23.65;47.93;101479.97;5038822;28;20046;-62
2022/08/25 06:21:47;;;;;;;6.53;2.78;;;;;;;23.71;47.89;101491.72;5028458;28;20054;-62
2022/08/25 06:24:15;;;;;;;5.40;2.67;;;;;;;23.72;48.01;101476.88;5028597;28;20050;-62
2022/08/25 06:26:43;;;;;;;7.00;3.33;;;;;;;23.73;47.71;101483.19;5028243;28;20050;-62
2022/08/25 06:29:12;;;;;;;6.35;3.25;;;;;;;23.73;48.02;101488.66;5037974;28;20049;-62
2022/08/25 06:31:41;;;;;;;5.15;3.03;;;;;;;23.71;47.71;101483.47;5048379;28;20121;-62
2022/08/25 06:34:09;;;;;;;4.20;3.17;;;;;;;23.69;47.93;101483.78;5030230;28;20054;-62
2022/08/25 06:36:37;;;;;;;8.60;3.33;;;;;;;23.70;48.10;101487.34;5028113;28;20111;-62
2022/08/25 06:39:07;;;;;;;4.25;2.80;;;;;;;23.69;47.63;101481.03;5043840;28;20076;-62
2022/08/25 06:41:38;;;;;;;3.97;2.78;;;;;;;23.70;47.61;101484.59;5048080;28;20446;-62
2022/08/25 06:44:06;;;;;;;4.82;3.00;;;;;;;23.71;47.66;101488.97;5028311;28;20077;-62
2022/08/25 06:46:34;;;;;;;5.40;3.25;;;;;;;23.71;47.71;101494.44;5027789;28;20050;-62
2022/08/25 06:49:04;;;;;;;4.13;2.30;;;;;;;23.73;47.96;101502.41;5028209;28;20053;-62
2022/08/25 06:51:34;;;;;;;5.07;2.60;;;;;;;23.73;48.02;101496.91;5046546;28;20139;-62
2022/08/25 06:54:03;;;;;;;5.65;3.33;;;;;;;23.73;48.00;101497.72;5047995;28;20045;-62
2022/08/25 06:56:33;;;;;;;5.30;2.60;;;;;;;23.69;47.96;101486.50;5036255;28;20050;-61
2022/08/25 06:59:01;;;;;;;5.95;3.40;;;;;;;23.74;47.90;101487.56;5027559;28;20093;-62
2022/08/25 07:01:30;;;;;;;4.90;2.80;;;;;;;23.73;47.97;101483.19;5027820;28;20076;-62
2022/08/25 07:04:01;;;;;;;4.50;2.90;;;;;;;23.72;48.09;101481.53;5027977;28;20050;-62
2022/08/25 07:06:31;;;;;;;5.72;2.90;;;;;;;23.74;48.06;101479.31;5027793;28;20065;-63
2022/08/25 07:08:59;;;;;;;7.05;3.30;;;;;;;23.74;48.12;101482.88;5027332;28;20081;-62
2022/08/25 07:11:28;;;;;;;4.72;3.30;;;;;;;23.76;48.01;101471.63;5027737;28;20077;-62
2022/08/25 07:13:57;;;;;;;6.45;2.55;;;;;;;23.76;47.77;101472.44;5027161;28;20053;-63
2022/08/25 07:16:24;;;;;;;6.90;3.22;;;;;;;23.77;48.14;101468.56;5042510;28;20400;-63
2022/08/25 07:18:57;;;;;;;4.15;2.75;;;;;;;23.78;48.11;101472.94;5047466;28;20450;-62
2022/08/25 07:21:28;;;;;;;6.45;2.60;;;;;;;23.78;47.75;101467.47;5045154;28;20467;-63
2022/08/25 07:24:02;;;;;;;4.50;2.80;;;;;;;23.80;47.69;101478.16;5027496;28;20243;-62
2022/08/25 07:26:33;;;;;;;5.55;2.67;;;;;;;23.81;48.09;101474.28;5027251;28;20046;-63
2022/08/25 07:29:09;;;;;;;5.85;3.17;;;;;;;23.81;48.27;101472.34;5027096;28;20052;-62
2022/08/25 07:31:37;;;;;;;4.03;2.70;;;;;;;23.82;48.18;101474.00;5027432;28;20086;-62
2022/08/25 07:36:53;;;;;;;4.57;2.88;;;;;;;23.83;48.13;101466.56;5027265;28;20057;-62
2022/08/25 07:39:22;;;;;;;4.70;2.40;;;;;;;23.84;47.89;101466.28;5027430;28;20439;-62
2022/08/25 07:41:50;;;;;;;4.85;2.55;;;;;;;23.84;48.22;101455.28;5027181;28;20089;-62
2022/08/25 07:44:22;;;;;;;7.57;3.28;;;;;;;23.85;48.28;101459.69;5026529;28;20056;-62
2022/08/25 07:46:51;;;;;;;5.55;3.03;;;;;;;23.86;48.11;101461.31;5026835;28;20415;-62
2022/08/25 07:49:21;;;;;;;6.40;2.55;;;;;;;23.88;47.95;101467.31;5027346;28;20050;-63
2022/08/25 07:51:50;;;;;;;5.80;3.03;;;;;;;23.88;48.06;101461.81;5027150;28;20149;-62
2022/08/25 07:54:32;;;;;;;6.10;3.10;;;;;;;23.89;48.22;101460.72;5034309;28;20072;-62
2022/08/25 07:57:01;;;;;;;5.20;2.78;;;;;;;23.89;47.86;101457.16;5046498;28;20057;-62
2022/08/25 07:59:31;;;;;;;5.20;2.95;;;;;;;23.90;47.76;101456.84;5027797;28;20054;-62
2022/08/25 08:02:08;;;;;;;4.63;2.85;;;;;;;23.92;47.79;101451.06;5026980;28;20460;-62
2022/08/25 08:04:47;;;;;;;5.78;2.72;;;;;;;23.94;48.24;101457.09;5026812;28;20049;-62
2022/08/25 08:07:16;;;;;;;8.35;3.53;;;;;;;23.96;48.18;101455.66;5026723;28;20156;-63
2022/08/25 08:09:44;;;;;;;5.72;2.90;;;;;;;23.98;48.24;101458.13;5026456;28;20089;-63
2022/08/25 08:12:12;;;;;;;5.47;2.63;;;;;;;23.99;47.94;101452.34;5045601;28;20084;-62
2022/08/25 08:14:43;;;;;;;8.38;3.05;;;;;;;24.00;47.99;101448.47;5045990;28;20049;-62
2022/08/25 08:17:12;;;;;;;4.88;2.58;;;;;;;24.03;48.44;101455.31;5033771;28;20056;-62
2022/08/25 08:19:40;;;;;;;5.35;2.80;;;;;;;24.05;48.25;101449.50;5026573;28;20056;-62
2022/08/25 08:22:14;;;;;;;9.15;3.00;;;;;;;24.07;48.53;101450.84;5028425;28;20049;-62
2022/08/25 08:24:44;;;;;;;4.35;2.83;;;;;;;24.08;48.46;101449.72;5046115;28;20049;-63
2022/08/25 08:27:23;;;;;;;4.25;2.65;;;;;;;24.09;48.25;101456.84;5045945;28;20053;-62
2022/08/25 08:29:52;;;;;;;4.70;2.83;;;;;;;24.11;48.10;101457.38;5045830;28;20112;-62
2022/08/25 08:32:20;;;;;;;6.97;2.75;;;;;;;24.10;48.32;101449.44;5039892;28;20038;-63
2022/08/25 08:34:58;;;;;;;6.03;3.33;;;;;;;24.14;48.38;101451.28;5026506;28;20056;-63
2022/08/25 08:37:26;;;;;;;5.72;2.78;;;;;;;24.15;48.20;101454.84;5026241;28;20054;-62
2022/08/25 08:39:54;;;;;;;4.40;2.85;;;;;;;24.17;48.45;101450.69;5026346;28;20054;-62
2022/08/25 08:42:41;;;;;;;4.47;2.42;;;;;;;24.18;48.12;101441.34;5025941;28;20092;-62
2022/08/25 08:45:27;;;;;;;4.00;2.40;;;;;;;24.20;48.59;101438.28;5026043;28;20137;-62
2022/08/25 08:48:21;;;;;;;5.68;2.72;;;;;;;24.15;48.67;101433.69;5025648;28;20046;-62
2022/08/25 08:51:01;;;;;;;6.97;3.28;;;;;;;24.24;48.76;101442.88;5040150;28;20092;-62
2022/08/25 08:53:45;;;;;;;5.25;2.63;;;;;;;24.26;48.96;101448.13;5046123;28;20042;-62
2022/08/25 08:56:14;;;;;;;;;;;;;;;24.28;48.95;101440.34;5046132;28;20057;-63
2022/08/25 08:58:46;;;;;;;4.25;2.83;;;;;;;24.30;48.93;101443.63;5030466;28;20019;-62
2022/08/25 09:01:26;;;;;;;7.25;3.08;;;;;;;24.32;48.78;101442.22;5026206;28;20053;-62
2022/08/25 09:04:00;;;;;;;4.15;2.55;;;;;;;24.35;48.57;101438.03;5025886;28;20045;-62
2022/08/25 09:06:37;;;;;;;9.55;3.00;;;;;;;24.37;48.99;101446.81;5026191;28;20052;-62
2022/08/25 09:09:06;;;;;;;4.50;2.50;;;;;;;24.40;48.88;101442.63;5025748;28;20058;-62
2022/08/25 09:11:49;;;;;;;6.53;2.58;;;;;;;24.42;48.66;101438.47;5025927;28;20320;-63
2022/08/25 09:14:32;;;;;;;6.78;2.55;;;;;;;24.45;48.58;101442.56;5036161;28;20045;-62
2022/08/25 09:17:06;;;;;;;5.55;2.92;;;;;;;24.48;48.69;101448.28;5045386;28;20092;-62
2022/08/25 09:20:02;;;;;;;4.95;2.50;;;;;;;24.51;48.70;101438.59;5041253;28;20053;-62
2022/08/25 09:22:46;;;;;;;6.57;2.50;;;;;;;24.54;48.55;101436.06;4986616;28;20050;-62
2022/08/25 09:25:22;;;;;;;4.38;2.40;;;;;;;24.57;48.65;101438.22;5025918;28;20049;-63
2022/08/25 09:28:19;;;;;;;4.63;2.53;;;;;;;24.61;48.80;101439.25;5025403;28;20056;-62
2022/08/25 09:30:54;;;;;;;6.82;2.40;;;;;;;24.63;48.63;101437.00;5025759;28;20054;-63
2022/08/25 09:33:25;;;;;;;5.28;2.60;;;;;;;24.67;48.43;101439.97;5032577;28;20050;-63
2022/08/25 09:35:55;;;;;;;7.28;2.47;;;;;;;24.70;48.56;101442.13;5047948;28;20057;-62
2022/08/25 09:38:25;;;;;;;3.92;2.20;;;;;;;24.73;48.46;101436.00;5049090;28;20495;-63
2022/08/25 09:40:55;;;;;;;4.35;2.58;;;;;;;24.76;48.16;101434.59;5045297;28;20054;-63
2022/08/25 09:43:31;;;;;;;5.00;2.33;;;;;;;24.79;48.53;101440.31;5028986;28;20054;-63
2022/08/25 09:46:01;;;;;;;4.13;2.60;;;;;;;24.84;48.40;101436.66;5029466;28;20080;-62
2022/08/25 09:48:36;;;;;;;4.78;2.55;;;;;;;24.86;48.42;101429.72;5029031;28;20050;-63
2022/08/25 09:51:17;;;;;;;4.75;2.40;;;;;;;24.92;48.55;101422.19;5029274;28;20050;-62
2022/08/25 09:53:51;;;;;;;4.50;2.47;;;;;;;24.96;48.58;101423.22;5029381;28;20042;-62
2022/08/25 09:56:21;;;;;;;5.75;2.28;;;;;;;25.01;48.64;101416.84;5029181;28;20054;-63
2022/08/25 09:58:50;;;;;;;4.20;2.35;;;;;;;25.04;48.21;101411.53;5029120;28;20137;-63
2022/08/25 10:01:19;;;;;;;6.03;3.05;;;;;;;25.07;48.32;101418.38;5028996;28;20530;-62
2022/08/25 10:03:59;;;;;;;6.05;2.10;;;;;;;25.10;48.35;101413.06;5048647;28;20053;-63
2022/08/25 10:06:33;;;;;;;6.25;2.85;;;;;;;25.13;48.49;101400.63;5048836;28;20088;-62
2022/08/25 10:09:05;;;;;;;6.03;2.50;;;;;;;25.16;47.99;101400.03;5048491;28;20053;-63
2022/08/25 10:11:38;;;;;;;3.85;2.33;;;;;;;25.17;47.98;101396.16;5037420;28;20064;-62
2022/08/25 10:14:17;;;;;;;5.20;2.50;;;;;;;25.23;47.99;101401.25;5028180;28;20488;-62
2022/08/25 10:16:47;;;;;;;4.35;2.00;;;;;;;25.29;48.26;101396.44;5028553;28;20061;-62
2022/08/25 10:19:25;;;;;;;5.68;2.75;;;;;;;25.38;48.32;101393.78;5028779;28;20045;-63
2022/08/25 10:22:07;;;;;;;5.85;2.10;;;;;;;25.42;47.98;101381.84;5028581;28;20076;-63
2022/08/25 10:24:39;;;;;;;8.13;2.15;;;;;;;25.51;47.85;101384.69;5028655;28;20053;-63
2022/08/25 10:27:22;;;;;;;7.55;3.13;;;;;;;25.56;47.62;101381.81;5028206;28;20056;-63
2022/08/25 10:30:06;;;;;;;8.07;2.28;;;;;;;25.61;47.80;101371.53;5028226;28;20050;-63
2022/08/25 10:32:56;;;;;;;8.05;2.35;;;;;;;25.68;47.82;101373.88;5028610;28;20054;-62
2022/08/25 10:35:31;;;;;;;3.70;2.03;;;;;;;25.74;47.66;101369.06;5025594;28;20057;-62
2022/08/25 10:38:10;;;;;;;8.38;2.38;;;;;;;25.80;47.78;101370.56;5028217;28;20080;-62
2022/08/25 10:40:44;;;;;;;5.20;2.20;;;;;;;25.80;47.17;101357.63;5028745;28;20060;-63
2022/08/25 10:43:24;;;;;;;7.03;2.42;;;;;;;25.86;47.49;101358.31;5027923;28;20081;-63
2022/08/25 10:46:03;;;;;;;3.88;2.53;;;;;;;25.89;46.97;101357.69;5027760;28;20057;-62
2022/08/25 10:48:52;;;;;;;5.35;2.17;;;;;;;25.93;46.59;101350.44;5027884;28;20510;-63
2022/08/25 10:51:51;;;;;;;8.23;2.40;;;;;;;25.99;47.00;101345.59;5028031;28;20073;-63
2022/08/25 10:54:39;;;;;;;5.32;2.80;;;;;;;26.03;46.48;101341.88;5028193;28;20074;-62
2022/08/25 10:57:18;;;;;;;4.25;2.00;;;;;;;26.06;45.53;101338.50;5027683;28;20058;-63
2022/08/25 10:59:56;;;;;;;7.38;2.00;;;;;;;26.13;45.88;101329.78;5027723;28;20076;-63
2022/08/25 11:02:47;;;;;;;4.72;2.10;;;;;;;26.19;46.38;101334.03;5028090;28;20049;-63
2022/08/25 11:05:25;;;;;;;5.00;2.50;;;;;;;26.25;45.60;101327.28;5027853;28;20046;-62
2022/08/25 11:08:04;;;;;;;3.25;2.13;;;;;;;26.29;45.69;101328.25;5027624;28;20140;-62
2022/08/25 11:10:41;;;;;;;5.45;2.10;;;;;;;26.35;45.56;101326.22;5027574;28;20077;-62
2022/08/25 11:13:16;;;;;;;5.15;2.42;;;;;;;26.41;45.50;101330.47;5027663;28;20077;-62
2022/08/25 11:15:51;;;;;;;6.38;2.20;;;;;;;26.38;45.06;101309.06;5027593;28;20317;-62
2022/08/25 11:18:50;;;;;;;3.72;2.20;;;;;;;26.48;44.54;101322.56;5027671;28;20060;-63
2022/08/25 11:21:23;;;;;;;5.10;2.55;;;;;;;26.54;45.01;101313.81;5027572;28;20054;-62
2022/08/25 11:23:58;;;;;;;4.18;2.30;;;;;;;26.63;45.63;101311.09;5027558;28;20077;-62
2022/08/25 11:26:33;;;;;;;8.85;2.47;;;;;;;26.70;45.85;101308.69;5027265;28;20084;-63
2022/08/25 11:29:09;;;;;;;5.07;2.00;;;;;;;26.76;45.33;101309.38;5027240;28;20113;-62
2022/08/25 11:31:42;;;;;;;7.53;2.20;;;;;;;26.78;43.47;101315.38;5027406;28;20109;-63
2022/08/25 11:34:13;;;;;;;2.53;1.77;;;;;;;26.81;44.30;101304.53;5027249;28;20049;-62
2022/08/25 11:36:49;;;;;;;5.00;2.13;;;;;;;26.86;44.29;101306.31;5027259;28;20041;-62
2022/08/25 11:39:31;;;;;;;3.95;2.20;;;;;;;26.87;42.53;101299.66;5027283;28;20116;-63
2022/08/25 11:42:27;;;;;;;3.92;2.33;;;;;;;26.91;42.85;101295.13;5027505;28;20050;-63
2022/08/25 11:45:06;;;;;;;4.80;2.10;;;;;;;26.98;44.30;101290.00;5026592;28;20480;-63
2022/08/25 11:47:58;;;;;;;7.35;2.60;;;;;;;27.03;43.87;101300.88;5027032;28;20054;-62
2022/08/25 11:50:31;;;;;;;6.00;2.22;;;;;;;27.09;43.16;101299.59;5027137;28;20100;-63
2022/08/25 11:53:19;;;;;;;6.00;2.35;;;;;;;27.12;41.41;101298.13;5027070;28;20050;-62